Manhattan Regional Airport

Airport
ICAO code: 
KMHK
Summary
ICAO Region: 
NAM
Territory: 
Location: 
Manhattan, Kansas,
Coordinates: 
Aerial View: 
39° 8' 30.135" N, 96° 40' 7.906" W
Airport CFIT: 
Altimeter Temperature Error Correction
Metar
Observation
KMHK 021552Z 22003KT 10SM CLR 12/01 A3002 RMK AO2 SLP167 T01170006
Station
Manhattan, Manhattan Municipal Airport
Date/Time
2021-12-02 15:52:00
Wind direction
220°
Wind speed
03 kts
Lowest cloud amount
n/a
Temperature
11.7°C
Dew point
0.6°C
Humidity
46%
Weather condition
n/a

Description

Manhattan Regional Airport is a public use airport located 7 km southwest of the central business district of Manhattan, in Riley County, Kansas

Climatology

Humid “subtropical” climate (Köppen climate classification Cfa) - characterized by hot, humid summers and cool winters. Significant amounts of precipitation occur in all seasons with most falling during the summer. Winter snowfall is associated with large storms that the westerlies steer from west to east. Most summer rainfall occurs during thunderstorms.

Runways

Designator Length Width Surface Rops
13/31 1158 30 PEM Yes/Yes
3/21 2134 46 CON Yes/Yes
Airport map: 
Aerial View: 

SKYbrary Partners:

Safety knowledge contributed by: